sensor_id;sensor_type;location;lat;lon;timestamp;temperature;humidity
25825;DHT22;13658;44.534;18.694;2024-03-17T00:00:32;11.40;99.90
25825;DHT22;13658;44.534;18.694;2024-03-17T00:02:58;11.40;99.90
25825;DHT22;13658;44.534;18.694;2024-03-17T00:05:24;11.30;99.90
25825;DHT22;13658;44.534;18.694;2024-03-17T00:07:50;11.40;99.90
25825;DHT22;13658;44.534;18.694;2024-03-17T00:10:16;11.40;99.90
25825;DHT22;13658;44.534;18.694;2024-03-17T00:12:42;11.50;99.90
25825;DHT22;13658;44.534;18.694;2024-03-17T00:15:08;11.60;99.90
25825;DHT22;13658;44.534;18.694;2024-03-17T00:17:35;11.70;99.90
25825;DHT22;13658;44.534;18.694;2024-03-17T00:20:01;11.70;99.90
25825;DHT22;13658;44.534;18.694;2024-03-17T00:22:30;11.80;99.90
25825;DHT22;13658;44.534;18.694;2024-03-17T00:24:56;11.80;99.90
25825;DHT22;13658;44.534;18.694;2024-03-17T00:27:22;11.70;99.90
25825;DHT22;13658;44.534;18.694;2024-03-17T00:29:48;11.70;99.90
25825;DHT22;13658;44.534;18.694;2024-03-17T00:32:14;11.60;99.90
25825;DHT22;13658;44.534;18.694;2024-03-17T00:34:40;11.40;99.90
25825;DHT22;13658;44.534;18.694;2024-03-17T00:37:06;11.10;99.90
25825;DHT22;13658;44.534;18.694;2024-03-17T00:39:32;11.10;99.90
25825;DHT22;13658;44.534;18.694;2024-03-17T00:41:58;11.00;99.90
25825;DHT22;13658;44.534;18.694;2024-03-17T00:44:24;11.30;99.90
25825;DHT22;13658;44.534;18.694;2024-03-17T00:46:50;11.30;99.90
25825;DHT22;13658;44.534;18.694;2024-03-17T00:49:16;11.40;99.90
25825;DHT22;13658;44.534;18.694;2024-03-17T00:51:42;11.40;99.90
25825;DHT22;13658;44.534;18.694;2024-03-17T00:54:08;11.20;99.90
25825;DHT22;13658;44.534;18.694;2024-03-17T00:56:34;11.00;99.90
25825;DHT22;13658;44.534;18.694;2024-03-17T00:59:00;10.80;99.90
25825;DHT22;13658;44.534;18.694;2024-03-17T01:01:26;10.80;99.90
25825;DHT22;13658;44.534;18.694;2024-03-17T01:03:52;10.90;99.90
25825;DHT22;13658;44.534;18.694;2024-03-17T01:06:18;11.00;99.90
25825;DHT22;13658;44.534;18.694;2024-03-17T01:08:43;11.10;99.90
25825;DHT22;13658;44.534;18.694;2024-03-17T01:11:15;11.10;99.90
25825;DHT22;13658;44.534;18.694;2024-03-17T01:13:42;10.90;99.90
25825;DHT22;13658;44.534;18.694;2024-03-17T01:16:08;10.80;99.90
25825;DHT22;13658;44.534;18.694;2024-03-17T01:18:34;10.70;99.90
25825;DHT22;13658;44.534;18.694;2024-03-17T01:21:03;10.60;99.90
25825;DHT22;13658;44.534;18.694;2024-03-17T01:23:29;10.60;99.90
25825;DHT22;13658;44.534;18.694;2024-03-17T01:25:55;10.50;99.90
25825;DHT22;13658;44.534;18.694;2024-03-17T01:28:21;10.60;99.90
25825;DHT22;13658;44.534;18.694;2024-03-17T01:30:46;10.50;99.90
25825;DHT22;13658;44.534;18.694;2024-03-17T01:33:13;10.60;99.90
25825;DHT22;13658;44.534;18.694;2024-03-17T01:35:39;10.70;99.90
25825;DHT22;13658;44.534;18.694;2024-03-17T01:38:05;10.70;99.90
25825;DHT22;13658;44.534;18.694;2024-03-17T01:40:31;10.90;99.90
25825;DHT22;13658;44.534;18.694;2024-03-17T01:42:57;10.90;99.90
25825;DHT22;13658;44.534;18.694;2024-03-17T01:45:30;10.90;99.90
25825;DHT22;13658;44.534;18.694;2024-03-17T01:48:02;11.00;99.90
25825;DHT22;13658;44.534;18.694;2024-03-17T01:50:34;11.00;99.90
25825;DHT22;13658;44.534;18.694;2024-03-17T01:53:02;10.90;99.90
25825;DHT22;13658;44.534;18.694;2024-03-17T01:55:32;11.00;99.90
25825;DHT22;13658;44.534;18.694;2024-03-17T01:57:58;11.00;99.90
25825;DHT22;13658;44.534;18.694;2024-03-17T02:00:24;11.00;99.90
25825;DHT22;13658;44.534;18.694;2024-03-17T02:02:52;11.10;99.90
25825;DHT22;13658;44.534;18.694;2024-03-17T02:05:18;11.00;99.90
25825;DHT22;13658;44.534;18.694;2024-03-17T02:07:44;11.00;99.90
25825;DHT22;13658;44.534;18.694;2024-03-17T02:10:10;11.10;99.90
25825;DHT22;13658;44.534;18.694;2024-03-17T02:12:36;11.00;99.90
25825;DHT22;13658;44.534;18.694;2024-03-17T02:15:02;10.90;99.90
25825;DHT22;13658;44.534;18.694;2024-03-17T02:17:32;10.80;99.90
25825;DHT22;13658;44.534;18.694;2024-03-17T02:19:58;10.60;99.90
25825;DHT22;13658;44.534;18.694;2024-03-17T02:22:24;10.50;99.90
25825;DHT22;13658;44.534;18.694;2024-03-17T02:24:50;10.50;99.90
25825;DHT22;13658;44.534;18.694;2024-03-17T02:27:15;10.50;99.90
25825;DHT22;13658;44.534;18.694;2024-03-17T02:29:41;10.70;99.90
25825;DHT22;13658;44.534;18.694;2024-03-17T02:32:08;10.80;99.90
25825;DHT22;13658;44.534;18.694;2024-03-17T02:34:34;10.80;99.90
25825;DHT22;13658;44.534;18.694;2024-03-17T02:37:01;10.80;99.90
25825;DHT22;13658;44.534;18.694;2024-03-17T02:39:31;10.60;99.90
25825;DHT22;13658;44.534;18.694;2024-03-17T02:42:10;10.60;99.90
25825;DHT22;13658;44.534;18.694;2024-03-17T02:44:38;10.80;99.90
25825;DHT22;13658;44.534;18.694;2024-03-17T02:47:06;10.70;99.90
25825;DHT22;13658;44.534;18.694;2024-03-17T02:49:35;10.70;99.90
25825;DHT22;13658;44.534;18.694;2024-03-17T02:52:06;10.80;99.90
25825;DHT22;13658;44.534;18.694;2024-03-17T02:54:35;10.70;99.90
25825;DHT22;13658;44.534;18.694;2024-03-17T02:57:05;10.70;99.90
25825;DHT22;13658;44.534;18.694;2024-03-17T02:59:32;10.70;99.90
25825;DHT22;13658;44.534;18.694;2024-03-17T03:01:59;10.80;99.90
25825;DHT22;13658;44.534;18.694;2024-03-17T03:04:26;10.70;99.90
25825;DHT22;13658;44.534;18.694;2024-03-17T03:06:51;10.60;99.90
25825;DHT22;13658;44.534;18.694;2024-03-17T03:09:18;10.70;99.90
25825;DHT22;13658;44.534;18.694;2024-03-17T03:11:52;10.70;99.90
25825;DHT22;13658;44.534;18.694;2024-03-17T03:14:18;10.70;99.90
25825;DHT22;13658;44.534;18.694;2024-03-17T03:16:44;10.70;99.90
25825;DHT22;13658;44.534;18.694;2024-03-17T03:19:10;10.60;99.90
25825;DHT22;13658;44.534;18.694;2024-03-17T03:21:36;10.50;99.90
25825;DHT22;13658;44.534;18.694;2024-03-17T03:24:02;10.40;99.90
25825;DHT22;13658;44.534;18.694;2024-03-17T03:26:28;10.30;99.90
25825;DHT22;13658;44.534;18.694;2024-03-17T03:28:54;10.30;99.90
25825;DHT22;13658;44.534;18.694;2024-03-17T03:31:21;10.40;99.90
25825;DHT22;13658;44.534;18.694;2024-03-17T03:33:47;10.40;99.90
25825;DHT22;13658;44.534;18.694;2024-03-17T03:36:15;10.50;99.90
25825;DHT22;13658;44.534;18.694;2024-03-17T03:38:42;10.60;99.90
25825;DHT22;13658;44.534;18.694;2024-03-17T03:41:13;10.50;99.90
25825;DHT22;13658;44.534;18.694;2024-03-17T03:43:39;10.50;99.90
25825;DHT22;13658;44.534;18.694;2024-03-17T03:46:07;10.50;99.90
25825;DHT22;13658;44.534;18.694;2024-03-17T03:48:33;10.60;99.90
25825;DHT22;13658;44.534;18.694;2024-03-17T03:51:04;10.60;99.90
25825;DHT22;13658;44.534;18.694;2024-03-17T03:53:31;10.60;99.90
25825;DHT22;13658;44.534;18.694;2024-03-17T03:55:58;10.60;99.90
25825;DHT22;13658;44.534;18.694;2024-03-17T03:58:25;10.60;99.90
25825;DHT22;13658;44.534;18.694;2024-03-17T04:00:51;10.60;99.90
25825;DHT22;13658;44.534;18.694;2024-03-17T04:03:17;10.60;99.90
25825;DHT22;13658;44.534;18.694;2024-03-17T04:05:43;10.50;99.90
25825;DHT22;13658;44.534;18.694;2024-03-17T04:08:09;10.40;99.90
25825;DHT22;13658;44.534;18.694;2024-03-17T04:10:35;10.40;99.90
25825;DHT22;13658;44.534;18.694;2024-03-17T04:13:01;10.50;99.90
25825;DHT22;13658;44.534;18.694;2024-03-17T04:15:28;10.50;99.90
25825;DHT22;13658;44.534;18.694;2024-03-17T04:17:54;10.50;99.90
25825;DHT22;13658;44.534;18.694;2024-03-17T04:20:20;10.50;99.90
25825;DHT22;13658;44.534;18.694;2024-03-17T04:22:46;10.50;99.90
25825;DHT22;13658;44.534;18.694;2024-03-17T04:25:14;10.50;99.90
25825;DHT22;13658;44.534;18.694;2024-03-17T04:27:40;10.40;99.90
25825;DHT22;13658;44.534;18.694;2024-03-17T04:30:07;10.50;99.90
25825;DHT22;13658;44.534;18.694;2024-03-17T04:32:33;10.60;99.90
25825;DHT22;13658;44.534;18.694;2024-03-17T04:34:59;10.60;99.90
25825;DHT22;13658;44.534;18.694;2024-03-17T04:37:25;10.50;99.90
25825;DHT22;13658;44.534;18.694;2024-03-17T04:39:51;10.50;99.90
25825;DHT22;13658;44.534;18.694;2024-03-17T04:42:18;10.50;99.90
25825;DHT22;13658;44.534;18.694;2024-03-17T04:44:45;10.60;99.90
25825;DHT22;13658;44.534;18.694;2024-03-17T04:47:11;10.50;99.90
25825;DHT22;13658;44.534;18.694;2024-03-17T04:49:42;10.40;99.90
25825;DHT22;13658;44.534;18.694;2024-03-17T04:52:10;10.40;99.90
25825;DHT22;13658;44.534;18.694;2024-03-17T04:54:36;10.40;99.90
25825;DHT22;13658;44.534;18.694;2024-03-17T04:57:03;10.50;99.90
25825;DHT22;13658;44.534;18.694;2024-03-17T04:59:30;10.40;99.90
25825;DHT22;13658;44.534;18.694;2024-03-17T05:01:56;10.40;99.90
25825;DHT22;13658;44.534;18.694;2024-03-17T05:04:21;10.40;99.90
25825;DHT22;13658;44.534;18.694;2024-03-17T05:06:50;10.40;99.90
25825;DHT22;13658;44.534;18.694;2024-03-17T05:09:17;10.50;99.90
25825;DHT22;13658;44.534;18.694;2024-03-17T05:11:43;10.50;99.90
25825;DHT22;13658;44.534;18.694;2024-03-17T05:14:09;10.50;99.90
25825;DHT22;13658;44.534;18.694;2024-03-17T05:16:35;10.50;99.90
25825;DHT22;13658;44.534;18.694;2024-03-17T05:19:01;10.40;99.90
25825;DHT22;13658;44.534;18.694;2024-03-17T05:21:27;10.40;99.90
25825;DHT22;13658;44.534;18.694;2024-03-17T05:23:57;10.40;99.90
25825;DHT22;13658;44.534;18.694;2024-03-17T05:26:25;10.30;99.90
25825;DHT22;13658;44.534;18.694;2024-03-17T05:28:52;10.40;99.90
25825;DHT22;13658;44.534;18.694;2024-03-17T05:31:19;10.40;99.90
25825;DHT22;13658;44.534;18.694;2024-03-17T05:33:47;10.20;99.90
25825;DHT22;13658;44.534;18.694;2024-03-17T05:36:13;10.20;99.90
25825;DHT22;13658;44.534;18.694;2024-03-17T05:38:40;10.30;99.90
25825;DHT22;13658;44.534;18.694;2024-03-17T05:41:07;10.40;99.90
25825;DHT22;13658;44.534;18.694;2024-03-17T05:43:36;10.50;99.90
25825;DHT22;13658;44.534;18.694;2024-03-17T05:46:03;10.60;99.90
25825;DHT22;13658;44.534;18.694;2024-03-17T05:48:37;10.50;99.90
25825;DHT22;13658;44.534;18.694;2024-03-17T05:51:04;10.50;99.90
25825;DHT22;13658;44.534;18.694;2024-03-17T05:53:31;10.50;99.90
25825;DHT22;13658;44.534;18.694;2024-03-17T05:56:03;10.60;99.90
25825;DHT22;13658;44.534;18.694;2024-03-17T05:58:30;10.60;99.90
25825;DHT22;13658;44.534;18.694;2024-03-17T06:00:56;10.60;99.90
25825;DHT22;13658;44.534;18.694;2024-03-17T06:03:22;10.60;99.90
25825;DHT22;13658;44.534;18.694;2024-03-17T06:05:48;10.70;99.90
25825;DHT22;13658;44.534;18.694;2024-03-17T06:08:14;10.80;99.90
25825;DHT22;13658;44.534;18.694;2024-03-17T06:10:46;10.90;99.90
25825;DHT22;13658;44.534;18.694;2024-03-17T06:13:13;10.90;99.90
25825;DHT22;13658;44.534;18.694;2024-03-17T06:15:41;11.00;99.90
25825;DHT22;13658;44.534;18.694;2024-03-17T06:18:07;11.00;99.90
25825;DHT22;13658;44.534;18.694;2024-03-17T06:20:41;11.00;99.90
25825;DHT22;13658;44.534;18.694;2024-03-17T06:23:08;11.10;99.90
25825;DHT22;13658;44.534;18.694;2024-03-17T06:28:11;11.00;99.90
25825;DHT22;13658;44.534;18.694;2024-03-17T06:30:42;11.00;99.90
25825;DHT22;13658;44.534;18.694;2024-03-17T06:33:12;11.10;99.90
25825;DHT22;13658;44.534;18.694;2024-03-17T06:35:39;11.10;99.90
25825;DHT22;13658;44.534;18.694;2024-03-17T06:38:05;11.10;99.90
25825;DHT22;13658;44.534;18.694;2024-03-17T06:40:36;11.10;99.90
25825;DHT22;13658;44.534;18.694;2024-03-17T06:43:02;11.10;99.90
25825;DHT22;13658;44.534;18.694;2024-03-17T06:45:28;11.10;99.90
25825;DHT22;13658;44.534;18.694;2024-03-17T06:47:54;11.20;99.90
25825;DHT22;13658;44.534;18.694;2024-03-17T06:50:21;11.20;99.90
25825;DHT22;13658;44.534;18.694;2024-03-17T06:52:47;11.10;99.90
25825;DHT22;13658;44.534;18.694;2024-03-17T06:55:13;11.10;99.90
25825;DHT22;13658;44.534;18.694;2024-03-17T06:57:42;11.10;99.90
25825;DHT22;13658;44.534;18.694;2024-03-17T07:00:13;11.20;99.90
25825;DHT22;13658;44.534;18.694;2024-03-17T07:02:44;11.40;99.90
25825;DHT22;13658;44.534;18.694;2024-03-17T07:05:13;11.50;99.90
25825;DHT22;13658;44.534;18.694;2024-03-17T07:07:43;11.50;99.90
25825;DHT22;13658;44.534;18.694;2024-03-17T07:10:10;11.60;99.90
25825;DHT22;13658;44.534;18.694;2024-03-17T07:12:41;11.80;99.90
25825;DHT22;13658;44.534;18.694;2024-03-17T07:15:08;12.00;99.90
25825;DHT22;13658;44.534;18.694;2024-03-17T07:17:34;12.00;99.90
25825;DHT22;13658;44.534;18.694;2024-03-17T07:20:00;11.90;99.90
25825;DHT22;13658;44.534;18.694;2024-03-17T07:22:27;12.00;99.90
25825;DHT22;13658;44.534;18.694;2024-03-17T07:24:54;12.20;99.90
25825;DHT22;13658;44.534;18.694;2024-03-17T07:27:27;12.20;99.90
25825;DHT22;13658;44.534;18.694;2024-03-17T07:29:53;12.30;99.90
25825;DHT22;13658;44.534;18.694;2024-03-17T07:32:19;12.40;99.90
25825;DHT22;13658;44.534;18.694;2024-03-17T07:34:45;12.40;99.90
25825;DHT22;13658;44.534;18.694;2024-03-17T07:37:11;12.60;99.90
25825;DHT22;13658;44.534;18.694;2024-03-17T07:39:40;12.60;99.90
25825;DHT22;13658;44.534;18.694;2024-03-17T07:42:06;12.60;99.90
25825;DHT22;13658;44.534;18.694;2024-03-17T07:44:32;12.70;99.90
25825;DHT22;13658;44.534;18.694;2024-03-17T07:47:01;12.70;99.90
25825;DHT22;13658;44.534;18.694;2024-03-17T07:49:30;12.90;99.90
25825;DHT22;13658;44.534;18.694;2024-03-17T07:51:56;13.20;99.90
25825;DHT22;13658;44.534;18.694;2024-03-17T07:54:24;13.60;99.90
25825;DHT22;13658;44.534;18.694;2024-03-17T07:56:50;13.90;99.90
25825;DHT22;13658;44.534;18.694;2024-03-17T07:59:16;14.10;99.90
25825;DHT22;13658;44.534;18.694;2024-03-17T08:01:44;13.80;99.90
25825;DHT22;13658;44.534;18.694;2024-03-17T08:04:10;13.80;99.90
25825;DHT22;13658;44.534;18.694;2024-03-17T08:06:38;13.70;99.90
25825;DHT22;13658;44.534;18.694;2024-03-17T08:09:05;13.80;99.90
25825;DHT22;13658;44.534;18.694;2024-03-17T08:11:31;14.10;99.90
25825;DHT22;13658;44.534;18.694;2024-03-17T08:13:56;14.30;99.90
25825;DHT22;13658;44.534;18.694;2024-03-17T08:16:22;14.20;99.90
25825;DHT22;13658;44.534;18.694;2024-03-17T08:18:48;14.30;99.90
25825;DHT22;13658;44.534;18.694;2024-03-17T08:21:14;14.20;99.90
25825;DHT22;13658;44.534;18.694;2024-03-17T08:23:40;14.20;99.90
25825;DHT22;13658;44.534;18.694;2024-03-17T08:26:08;14.40;99.90
25825;DHT22;13658;44.534;18.694;2024-03-17T08:28:34;14.30;99.90
25825;DHT22;13658;44.534;18.694;2024-03-17T08:31:02;14.90;99.90
25825;DHT22;13658;44.534;18.694;2024-03-17T08:33:29;14.50;99.90
25825;DHT22;13658;44.534;18.694;2024-03-17T08:36:04;14.70;99.90
25825;DHT22;13658;44.534;18.694;2024-03-17T08:38:31;14.80;99.90
25825;DHT22;13658;44.534;18.694;2024-03-17T08:41:02;14.70;99.90
25825;DHT22;13658;44.534;18.694;2024-03-17T08:43:29;14.60;99.90
25825;DHT22;13658;44.534;18.694;2024-03-17T08:46:02;14.90;99.90
25825;DHT22;13658;44.534;18.694;2024-03-17T08:48:30;14.80;99.90
25825;DHT22;13658;44.534;18.694;2024-03-17T08:50:57;14.60;99.90
25825;DHT22;13658;44.534;18.694;2024-03-17T08:53:23;14.50;99.90
25825;DHT22;13658;44.534;18.694;2024-03-17T08:55:50;14.80;99.90
25825;DHT22;13658;44.534;18.694;2024-03-17T08:58:16;14.90;99.90
25825;DHT22;13658;44.534;18.694;2024-03-17T09:00:43;14.80;99.90
25825;DHT22;13658;44.534;18.694;2024-03-17T09:03:09;15.20;99.90
25825;DHT22;13658;44.534;18.694;2024-03-17T09:05:36;15.30;99.90
25825;DHT22;13658;44.534;18.694;2024-03-17T09:08:03;15.60;99.90
25825;DHT22;13658;44.534;18.694;2024-03-17T09:10:29;15.30;99.90
25825;DHT22;13658;44.534;18.694;2024-03-17T09:12:55;15.50;99.90
25825;DHT22;13658;44.534;18.694;2024-03-17T09:15:22;15.60;99.90
25825;DHT22;13658;44.534;18.694;2024-03-17T09:17:48;15.50;99.90
25825;DHT22;13658;44.534;18.694;2024-03-17T09:20:14;15.50;99.90
25825;DHT22;13658;44.534;18.694;2024-03-17T09:22:41;15.50;99.90
25825;DHT22;13658;44.534;18.694;2024-03-17T09:25:08;15.80;99.90
25825;DHT22;13658;44.534;18.694;2024-03-17T09:27:35;16.40;99.90
25825;DHT22;13658;44.534;18.694;2024-03-17T09:30:04;16.50;99.90
25825;DHT22;13658;44.534;18.694;2024-03-17T09:32:38;16.50;99.90
25825;DHT22;13658;44.534;18.694;2024-03-17T09:35:05;16.60;99.90
25825;DHT22;13658;44.534;18.694;2024-03-17T09:37:31;16.50;99.90
25825;DHT22;13658;44.534;18.694;2024-03-17T09:40:00;16.20;99.90
25825;DHT22;13658;44.534;18.694;2024-03-17T09:42:28;16.10;99.90
25825;DHT22;13658;44.534;18.694;2024-03-17T09:44:54;16.40;99.90
25825;DHT22;13658;44.534;18.694;2024-03-17T09:47:22;16.20;99.90
25825;DHT22;13658;44.534;18.694;2024-03-17T09:49:49;16.40;99.90
25825;DHT22;13658;44.534;18.694;2024-03-17T09:52:23;16.50;99.90
25825;DHT22;13658;44.534;18.694;2024-03-17T09:55:05;16.50;99.90
25825;DHT22;13658;44.534;18.694;2024-03-17T09:57:38;16.40;99.90
25825;DHT22;13658;44.534;18.694;2024-03-17T10:00:14;16.40;99.90
25825;DHT22;13658;44.534;18.694;2024-03-17T10:02:46;16.50;99.90
25825;DHT22;13658;44.534;18.694;2024-03-17T10:05:23;16.90;99.90
25825;DHT22;13658;44.534;18.694;2024-03-17T10:07:52;17.40;99.90
25825;DHT22;13658;44.534;18.694;2024-03-17T10:10:20;18.10;99.90
25825;DHT22;13658;44.534;18.694;2024-03-17T10:12:50;18.40;99.90
25825;DHT22;13658;44.534;18.694;2024-03-17T10:15:17;19.00;99.90
25825;DHT22;13658;44.534;18.694;2024-03-17T10:17:44;20.90;99.90
25825;DHT22;13658;44.534;18.694;2024-03-17T10:20:15;20.80;99.90
25825;DHT22;13658;44.534;18.694;2024-03-17T10:25:27;21.60;99.90
25825;DHT22;13658;44.534;18.694;2024-03-17T10:27:54;20.70;99.90
25825;DHT22;13658;44.534;18.694;2024-03-17T10:30:20;20.20;99.90
25825;DHT22;13658;44.534;18.694;2024-03-17T10:32:58;20.60;99.90
25825;DHT22;13658;44.534;18.694;2024-03-17T10:35:34;21.70;99.90
25825;DHT22;13658;44.534;18.694;2024-03-17T10:38:04;22.80;99.90
25825;DHT22;13658;44.534;18.694;2024-03-17T10:40:32;23.70;99.90
25825;DHT22;13658;44.534;18.694;2024-03-17T10:43:05;22.90;99.90
25825;DHT22;13658;44.534;18.694;2024-03-17T10:45:33;21.10;99.90
25825;DHT22;13658;44.534;18.694;2024-03-17T10:48:07;20.70;99.90
25825;DHT22;13658;44.534;18.694;2024-03-17T10:50:37;22.70;99.90
25825;DHT22;13658;44.534;18.694;2024-03-17T10:53:07;23.90;99.90
25825;DHT22;13658;44.534;18.694;2024-03-17T10:55:44;25.10;99.90
25825;DHT22;13658;44.534;18.694;2024-03-17T10:58:33;24.00;99.90
25825;DHT22;13658;44.534;18.694;2024-03-17T11:01:01;22.10;99.90
25825;DHT22;13658;44.534;18.694;2024-03-17T11:03:31;20.40;99.90
25825;DHT22;13658;44.534;18.694;2024-03-17T11:05:59;20.20;99.90
25825;DHT22;13658;44.534;18.694;2024-03-17T11:08:26;20.90;99.90
25825;DHT22;13658;44.534;18.694;2024-03-17T11:10:53;21.00;99.90
25825;DHT22;13658;44.534;18.694;2024-03-17T11:13:28;21.10;99.90
25825;DHT22;13658;44.534;18.694;2024-03-17T11:15:58;20.40;99.90
25825;DHT22;13658;44.534;18.694;2024-03-17T11:18:27;20.20;99.90
25825;DHT22;13658;44.534;18.694;2024-03-17T11:21:04;20.10;99.90
25825;DHT22;13658;44.534;18.694;2024-03-17T11:23:35;19.70;99.90
25825;DHT22;13658;44.534;18.694;2024-03-17T11:26:03;19.70;99.90
25825;DHT22;13658;44.534;18.694;2024-03-17T11:34:04;19.10;99.90
25825;DHT22;13658;44.534;18.694;2024-03-17T11:36:35;19.00;99.90
25825;DHT22;13658;44.534;18.694;2024-03-17T11:39:08;18.90;99.90
25825;DHT22;13658;44.534;18.694;2024-03-17T11:41:50;18.80;99.90
25825;DHT22;13658;44.534;18.694;2024-03-17T11:44:26;19.00;99.90
25825;DHT22;13658;44.534;18.694;2024-03-17T11:47:03;19.00;99.90
25825;DHT22;13658;44.534;18.694;2024-03-17T11:49:32;19.30;99.90
25825;DHT22;13658;44.534;18.694;2024-03-17T11:52:10;18.90;99.90
25825;DHT22;13658;44.534;18.694;2024-03-17T11:54:44;19.00;99.90
25825;DHT22;13658;44.534;18.694;2024-03-17T11:57:22;18.80;99.90
25825;DHT22;13658;44.534;18.694;2024-03-17T11:59:51;18.80;99.90
25825;DHT22;13658;44.534;18.694;2024-03-17T12:02:27;18.50;99.90
25825;DHT22;13658;44.534;18.694;2024-03-17T12:04:56;18.30;99.90
25825;DHT22;13658;44.534;18.694;2024-03-17T12:07:23;18.20;99.90
25825;DHT22;13658;44.534;18.694;2024-03-17T12:09:51;17.90;99.90
25825;DHT22;13658;44.534;18.694;2024-03-17T12:12:22;18.00;99.90
25825;DHT22;13658;44.534;18.694;2024-03-17T12:14:49;17.70;99.90
25825;DHT22;13658;44.534;18.694;2024-03-17T12:17:21;17.60;99.90
25825;DHT22;13658;44.534;18.694;2024-03-17T12:19:47;17.40;99.90
25825;DHT22;13658;44.534;18.694;2024-03-17T12:22:21;17.00;99.90
25825;DHT22;13658;44.534;18.694;2024-03-17T12:24:49;17.10;99.90
25825;DHT22;13658;44.534;18.694;2024-03-17T12:27:21;16.90;99.90
25825;DHT22;13658;44.534;18.694;2024-03-17T12:29:54;17.30;99.90
25825;DHT22;13658;44.534;18.694;2024-03-17T12:32:24;17.40;99.90
25825;DHT22;13658;44.534;18.694;2024-03-17T12:34:56;17.80;99.90
25825;DHT22;13658;44.534;18.694;2024-03-17T12:37:24;18.30;99.90
25825;DHT22;13658;44.534;18.694;2024-03-17T12:39:54;18.60;99.90
25825;DHT22;13658;44.534;18.694;2024-03-17T12:42:24;18.50;99.90
25825;DHT22;13658;44.534;18.694;2024-03-17T12:44:52;17.90;99.90
25825;DHT22;13658;44.534;18.694;2024-03-17T12:47:19;17.60;99.90
25825;DHT22;13658;44.534;18.694;2024-03-17T12:49:47;17.70;99.90
25825;DHT22;13658;44.534;18.694;2024-03-17T12:52:26;17.60;99.90
25825;DHT22;13658;44.534;18.694;2024-03-17T12:55:08;17.60;99.90
25825;DHT22;13658;44.534;18.694;2024-03-17T12:58:06;17.70;99.90
25825;DHT22;13658;44.534;18.694;2024-03-17T13:01:03;18.00;99.90
25825;DHT22;13658;44.534;18.694;2024-03-17T13:03:33;17.90;99.90
25825;DHT22;13658;44.534;18.694;2024-03-17T13:06:00;17.70;99.90
25825;DHT22;13658;44.534;18.694;2024-03-17T13:08:28;18.00;99.90
25825;DHT22;13658;44.534;18.694;2024-03-17T13:10:54;18.20;99.90
25825;DHT22;13658;44.534;18.694;2024-03-17T13:13:21;18.30;99.90
25825;DHT22;13658;44.534;18.694;2024-03-17T13:15:47;18.20;99.90
25825;DHT22;13658;44.534;18.694;2024-03-17T13:18:17;17.90;99.90
25825;DHT22;13658;44.534;18.694;2024-03-17T13:20:49;17.50;99.90
25825;DHT22;13658;44.534;18.694;2024-03-17T13:23:16;17.50;99.90
25825;DHT22;13658;44.534;18.694;2024-03-17T13:25:42;17.40;99.90
25825;DHT22;13658;44.534;18.694;2024-03-17T13:28:09;17.40;99.90
25825;DHT22;13658;44.534;18.694;2024-03-17T13:30:36;17.70;99.90
25825;DHT22;13658;44.534;18.694;2024-03-17T13:33:03;17.60;99.90
25825;DHT22;13658;44.534;18.694;2024-03-17T13:35:35;17.60;99.90
25825;DHT22;13658;44.534;18.694;2024-03-17T13:38:04;17.50;99.90
25825;DHT22;13658;44.534;18.694;2024-03-17T13:40:33;17.30;99.90
25825;DHT22;13658;44.534;18.694;2024-03-17T13:42:59;17.40;99.90
25825;DHT22;13658;44.534;18.694;2024-03-17T13:45:28;17.50;99.90
25825;DHT22;13658;44.534;18.694;2024-03-17T13:48:02;17.30;99.90
25825;DHT22;13658;44.534;18.694;2024-03-17T13:50:31;17.10;99.90
25825;DHT22;13658;44.534;18.694;2024-03-17T13:52:57;16.90;99.90
25825;DHT22;13658;44.534;18.694;2024-03-17T13:55:25;16.70;99.90
25825;DHT22;13658;44.534;18.694;2024-03-17T13:57:53;16.80;99.90
25825;DHT22;13658;44.534;18.694;2024-03-17T14:00:21;16.80;99.90
25825;DHT22;13658;44.534;18.694;2024-03-17T14:02:49;16.80;99.90
25825;DHT22;13658;44.534;18.694;2024-03-17T14:05:17;16.70;99.90
25825;DHT22;13658;44.534;18.694;2024-03-17T14:07:44;16.60;99.90
25825;DHT22;13658;44.534;18.694;2024-03-17T14:10:18;16.60;99.90
25825;DHT22;13658;44.534;18.694;2024-03-17T14:12:44;16.30;99.90
25825;DHT22;13658;44.534;18.694;2024-03-17T14:15:12;16.40;99.90
25825;DHT22;13658;44.534;18.694;2024-03-17T14:17:39;16.40;99.90
25825;DHT22;13658;44.534;18.694;2024-03-17T14:20:06;16.40;99.90
25825;DHT22;13658;44.534;18.694;2024-03-17T14:22:36;16.40;99.90
25825;DHT22;13658;44.534;18.694;2024-03-17T14:25:07;16.50;99.90
25825;DHT22;13658;44.534;18.694;2024-03-17T14:27:33;16.40;99.90
25825;DHT22;13658;44.534;18.694;2024-03-17T14:30:00;16.40;99.90
25825;DHT22;13658;44.534;18.694;2024-03-17T14:32:26;16.30;99.90
25825;DHT22;13658;44.534;18.694;2024-03-17T14:34:53;16.30;99.90
25825;DHT22;13658;44.534;18.694;2024-03-17T14:37:19;16.30;99.90
25825;DHT22;13658;44.534;18.694;2024-03-17T14:39:45;16.40;99.90
25825;DHT22;13658;44.534;18.694;2024-03-17T14:42:11;16.40;99.90
25825;DHT22;13658;44.534;18.694;2024-03-17T14:44:37;16.30;99.90
25825;DHT22;13658;44.534;18.694;2024-03-17T14:47:03;16.40;99.90
25825;DHT22;13658;44.534;18.694;2024-03-17T14:49:33;16.30;99.90
25825;DHT22;13658;44.534;18.694;2024-03-17T14:51:59;16.20;99.90
25825;DHT22;13658;44.534;18.694;2024-03-17T14:54:26;16.20;99.90
25825;DHT22;13658;44.534;18.694;2024-03-17T14:56:52;16.00;99.90
25825;DHT22;13658;44.534;18.694;2024-03-17T14:59:20;16.10;99.90
25825;DHT22;13658;44.534;18.694;2024-03-17T15:01:46;16.00;99.90
25825;DHT22;13658;44.534;18.694;2024-03-17T15:04:13;16.00;99.90
25825;DHT22;13658;44.534;18.694;2024-03-17T15:06:41;16.00;99.90
25825;DHT22;13658;44.534;18.694;2024-03-17T15:09:09;16.00;99.90
25825;DHT22;13658;44.534;18.694;2024-03-17T15:11:35;15.90;99.90
25825;DHT22;13658;44.534;18.694;2024-03-17T15:14:01;15.80;99.90
25825;DHT22;13658;44.534;18.694;2024-03-17T15:16:27;15.80;99.90
25825;DHT22;13658;44.534;18.694;2024-03-17T15:18:55;15.90;99.90
25825;DHT22;13658;44.534;18.694;2024-03-17T15:21:21;15.80;99.90
25825;DHT22;13658;44.534;18.694;2024-03-17T15:23:47;15.80;99.90
25825;DHT22;13658;44.534;18.694;2024-03-17T15:26:13;15.80;99.90
25825;DHT22;13658;44.534;18.694;2024-03-17T15:28:43;15.80;99.90
25825;DHT22;13658;44.534;18.694;2024-03-17T15:31:11;15.80;99.90